sensor_id;sensor_type;location;lat;lon;timestamp;temperature;humidity
10354;DHT22;5223;50.924;13.338;2022-08-02T00:00:03;16.00;99.90
10354;DHT22;5223;50.924;13.338;2022-08-02T00:02:32;16.00;99.90
10354;DHT22;5223;50.924;13.338;2022-08-02T00:04:59;15.90;99.90
10354;DHT22;5223;50.924;13.338;2022-08-02T00:07:26;15.90;99.90
10354;DHT22;5223;50.924;13.338;2022-08-02T00:09:53;15.80;99.90
10354;DHT22;5223;50.924;13.338;2022-08-02T00:12:20;15.80;99.90
10354;DHT22;5223;50.924;13.338;2022-08-02T00:14:48;15.80;99.90
10354;DHT22;5223;50.924;13.338;2022-08-02T00:17:15;15.80;99.90
10354;DHT22;5223;50.924;13.338;2022-08-02T00:19:44;15.80;99.90
10354;DHT22;5223;50.924;13.338;2022-08-02T00:22:13;15.80;99.90
10354;DHT22;5223;50.924;13.338;2022-08-02T00:24:41;15.80;99.90
10354;DHT22;5223;50.924;13.338;2022-08-02T00:27:07;15.70;99.90
10354;DHT22;5223;50.924;13.338;2022-08-02T00:29:35;15.80;99.90
10354;DHT22;5223;50.924;13.338;2022-08-02T00:32:03;15.80;99.90
10354;DHT22;5223;50.924;13.338;2022-08-02T00:34:30;16.00;99.90
10354;DHT22;5223;50.924;13.338;2022-08-02T00:36:59;16.00;99.90
10354;DHT22;5223;50.924;13.338;2022-08-02T00:39:26;16.20;99.90
10354;DHT22;5223;50.924;13.338;2022-08-02T00:41:53;16.30;99.90
10354;DHT22;5223;50.924;13.338;2022-08-02T00:44:20;16.40;99.90
10354;DHT22;5223;50.924;13.338;2022-08-02T00:46:48;16.40;99.90
10354;DHT22;5223;50.924;13.338;2022-08-02T00:49:16;16.40;99.90
10354;DHT22;5223;50.924;13.338;2022-08-02T00:51:43;16.40;99.90
10354;DHT22;5223;50.924;13.338;2022-08-02T00:54:12;16.40;99.90
10354;DHT22;5223;50.924;13.338;2022-08-02T00:56:39;16.30;99.90
10354;DHT22;5223;50.924;13.338;2022-08-02T00:59:11;16.20;99.90
10354;DHT22;5223;50.924;13.338;2022-08-02T01:01:38;16.10;99.90
10354;DHT22;5223;50.924;13.338;2022-08-02T01:04:07;16.00;99.90
10354;DHT22;5223;50.924;13.338;2022-08-02T01:06:35;15.90;99.90
10354;DHT22;5223;50.924;13.338;2022-08-02T01:09:06;15.80;99.90
10354;DHT22;5223;50.924;13.338;2022-08-02T01:11:35;15.80;99.90
10354;DHT22;5223;50.924;13.338;2022-08-02T01:14:05;15.70;99.90
10354;DHT22;5223;50.924;13.338;2022-08-02T01:16:38;15.60;99.90
10354;DHT22;5223;50.924;13.338;2022-08-02T01:19:15;15.60;99.90
10354;DHT22;5223;50.924;13.338;2022-08-02T01:22:04;15.60;99.90
10354;DHT22;5223;50.924;13.338;2022-08-02T01:24:55;15.50;99.90
10354;DHT22;5223;50.924;13.338;2022-08-02T01:27:36;15.50;99.90
10354;DHT22;5223;50.924;13.338;2022-08-02T01:30:07;15.50;99.90
10354;DHT22;5223;50.924;13.338;2022-08-02T01:32:38;15.50;99.90
10354;DHT22;5223;50.924;13.338;2022-08-02T01:35:10;15.40;99.90
10354;DHT22;5223;50.924;13.338;2022-08-02T01:37:45;15.40;99.90
10354;DHT22;5223;50.924;13.338;2022-08-02T01:40:20;15.40;99.90
10354;DHT22;5223;50.924;13.338;2022-08-02T01:42:51;15.30;99.90
10354;DHT22;5223;50.924;13.338;2022-08-02T01:45:23;15.40;99.90
10354;DHT22;5223;50.924;13.338;2022-08-02T01:47:50;15.40;99.90
10354;DHT22;5223;50.924;13.338;2022-08-02T01:50:24;15.30;99.90
10354;DHT22;5223;50.924;13.338;2022-08-02T01:52:54;15.30;99.90
10354;DHT22;5223;50.924;13.338;2022-08-02T01:55:24;15.20;99.90
10354;DHT22;5223;50.924;13.338;2022-08-02T01:57:54;15.10;99.90
10354;DHT22;5223;50.924;13.338;2022-08-02T02:00:27;15.10;99.90
10354;DHT22;5223;50.924;13.338;2022-08-02T02:02:57;15.10;99.90
10354;DHT22;5223;50.924;13.338;2022-08-02T02:05:26;15.00;99.90
10354;DHT22;5223;50.924;13.338;2022-08-02T02:07:56;15.00;99.90
10354;DHT22;5223;50.924;13.338;2022-08-02T02:10:26;15.00;99.90
10354;DHT22;5223;50.924;13.338;2022-08-02T02:12:57;15.00;99.90
10354;DHT22;5223;50.924;13.338;2022-08-02T02:15:27;14.90;99.90
10354;DHT22;5223;50.924;13.338;2022-08-02T02:17:56;14.90;99.90
10354;DHT22;5223;50.924;13.338;2022-08-02T02:20:24;14.90;99.90
10354;DHT22;5223;50.924;13.338;2022-08-02T02:22:51;14.90;99.90
10354;DHT22;5223;50.924;13.338;2022-08-02T02:25:20;14.90;99.90
10354;DHT22;5223;50.924;13.338;2022-08-02T02:27:53;14.90;99.90
10354;DHT22;5223;50.924;13.338;2022-08-02T02:30:22;14.90;99.90
10354;DHT22;5223;50.924;13.338;2022-08-02T02:32:56;14.90;99.90
10354;DHT22;5223;50.924;13.338;2022-08-02T02:35:27;14.90;99.90
10354;DHT22;5223;50.924;13.338;2022-08-02T02:37:55;14.90;99.90
10354;DHT22;5223;50.924;13.338;2022-08-02T02:40:26;14.90;99.90
10354;DHT22;5223;50.924;13.338;2022-08-02T02:42:55;14.80;99.90
10354;DHT22;5223;50.924;13.338;2022-08-02T02:45:24;14.80;99.90
10354;DHT22;5223;50.924;13.338;2022-08-02T02:47:54;14.80;99.90
10354;DHT22;5223;50.924;13.338;2022-08-02T02:50:23;14.80;99.90
10354;DHT22;5223;50.924;13.338;2022-08-02T02:52:52;14.80;99.90
10354;DHT22;5223;50.924;13.338;2022-08-02T02:55:20;14.80;99.90
10354;DHT22;5223;50.924;13.338;2022-08-02T02:57:48;14.80;99.90
10354;DHT22;5223;50.924;13.338;2022-08-02T03:00:16;14.80;99.90
10354;DHT22;5223;50.924;13.338;2022-08-02T03:03:05;14.80;99.90
10354;DHT22;5223;50.924;13.338;2022-08-02T03:05:33;14.80;99.90
10354;DHT22;5223;50.924;13.338;2022-08-02T03:08:00;14.70;99.90
10354;DHT22;5223;50.924;13.338;2022-08-02T03:10:27;14.70;99.90
10354;DHT22;5223;50.924;13.338;2022-08-02T03:12:55;14.60;99.90
10354;DHT22;5223;50.924;13.338;2022-08-02T03:15:26;14.60;99.90
10354;DHT22;5223;50.924;13.338;2022-08-02T03:17:53;14.60;99.90
10354;DHT22;5223;50.924;13.338;2022-08-02T03:20:22;14.50;99.90
10354;DHT22;5223;50.924;13.338;2022-08-02T03:22:50;14.60;99.90
10354;DHT22;5223;50.924;13.338;2022-08-02T03:25:17;14.50;99.90
10354;DHT22;5223;50.924;13.338;2022-08-02T03:27:44;14.50;99.90
10354;DHT22;5223;50.924;13.338;2022-08-02T03:30:13;14.40;99.90
10354;DHT22;5223;50.924;13.338;2022-08-02T03:32:43;14.40;99.90
10354;DHT22;5223;50.924;13.338;2022-08-02T03:35:13;14.30;99.90
10354;DHT22;5223;50.924;13.338;2022-08-02T03:37:42;14.30;99.90
10354;DHT22;5223;50.924;13.338;2022-08-02T03:40:12;14.40;99.90
10354;DHT22;5223;50.924;13.338;2022-08-02T03:42:40;14.40;99.90
10354;DHT22;5223;50.924;13.338;2022-08-02T03:45:09;14.40;99.90
10354;DHT22;5223;50.924;13.338;2022-08-02T03:47:38;14.50;99.90
10354;DHT22;5223;50.924;13.338;2022-08-02T03:50:07;14.50;99.90
10354;DHT22;5223;50.924;13.338;2022-08-02T03:52:36;14.50;99.90
10354;DHT22;5223;50.924;13.338;2022-08-02T03:55:06;14.50;99.90
10354;DHT22;5223;50.924;13.338;2022-08-02T03:57:37;14.60;99.90
10354;DHT22;5223;50.924;13.338;2022-08-02T04:00:05;14.60;99.90
10354;DHT22;5223;50.924;13.338;2022-08-02T04:02:33;14.60;99.90
10354;DHT22;5223;50.924;13.338;2022-08-02T04:05:01;14.60;99.90
10354;DHT22;5223;50.924;13.338;2022-08-02T04:07:28;14.70;99.90
10354;DHT22;5223;50.924;13.338;2022-08-02T04:09:55;14.70;99.90
10354;DHT22;5223;50.924;13.338;2022-08-02T04:12:23;14.80;99.90
10354;DHT22;5223;50.924;13.338;2022-08-02T04:14:49;14.80;99.90
10354;DHT22;5223;50.924;13.338;2022-08-02T04:17:17;14.90;99.90
10354;DHT22;5223;50.924;13.338;2022-08-02T04:19:49;15.00;99.90
10354;DHT22;5223;50.924;13.338;2022-08-02T04:22:22;15.10;99.90
10354;DHT22;5223;50.924;13.338;2022-08-02T04:24:54;15.10;99.90
10354;DHT22;5223;50.924;13.338;2022-08-02T04:27:24;15.20;99.90
10354;DHT22;5223;50.924;13.338;2022-08-02T04:29:53;15.30;99.90
10354;DHT22;5223;50.924;13.338;2022-08-02T04:32:21;15.40;99.90
10354;DHT22;5223;50.924;13.338;2022-08-02T04:34:49;15.40;99.90
10354;DHT22;5223;50.924;13.338;2022-08-02T04:37:16;15.50;99.90
10354;DHT22;5223;50.924;13.338;2022-08-02T04:39:44;15.60;99.90
10354;DHT22;5223;50.924;13.338;2022-08-02T04:42:19;15.70;99.90
10354;DHT22;5223;50.924;13.338;2022-08-02T04:44:48;15.80;99.90
10354;DHT22;5223;50.924;13.338;2022-08-02T04:47:15;15.90;99.90
10354;DHT22;5223;50.924;13.338;2022-08-02T04:49:42;16.00;99.90
10354;DHT22;5223;50.924;13.338;2022-08-02T04:52:09;16.10;99.90
10354;DHT22;5223;50.924;13.338;2022-08-02T04:54:37;16.20;99.90
10354;DHT22;5223;50.924;13.338;2022-08-02T04:57:04;16.30;99.90
10354;DHT22;5223;50.924;13.338;2022-08-02T05:00:00;16.40;99.90
10354;DHT22;5223;50.924;13.338;2022-08-02T05:02:29;16.50;99.90
10354;DHT22;5223;50.924;13.338;2022-08-02T05:05:09;16.60;99.90
10354;DHT22;5223;50.924;13.338;2022-08-02T05:07:51;16.50;99.90
10354;DHT22;5223;50.924;13.338;2022-08-02T05:10:28;16.50;99.90
10354;DHT22;5223;50.924;13.338;2022-08-02T05:13:05;16.50;99.90
10354;DHT22;5223;50.924;13.338;2022-08-02T05:19:01;16.50;99.90
10354;DHT22;5223;50.924;13.338;2022-08-02T05:22:04;16.80;99.90
10354;DHT22;5223;50.924;13.338;2022-08-02T05:24:54;16.90;99.90
10354;DHT22;5223;50.924;13.338;2022-08-02T05:27:40;17.00;99.90
10354;DHT22;5223;50.924;13.338;2022-08-02T05:30:38;17.20;99.90
10354;DHT22;5223;50.924;13.338;2022-08-02T05:33:10;17.30;99.90
10354;DHT22;5223;50.924;13.338;2022-08-02T05:35:55;17.50;99.90
10354;DHT22;5223;50.924;13.338;2022-08-02T05:38:33;17.70;99.90
10354;DHT22;5223;50.924;13.338;2022-08-02T05:41:04;17.80;99.90
10354;DHT22;5223;50.924;13.338;2022-08-02T05:43:36;17.70;99.90
10354;DHT22;5223;50.924;13.338;2022-08-02T05:46:11;17.60;99.90
10354;DHT22;5223;50.924;13.338;2022-08-02T05:48:38;17.70;99.90
10354;DHT22;5223;50.924;13.338;2022-08-02T05:51:11;17.90;99.90
10354;DHT22;5223;50.924;13.338;2022-08-02T05:53:48;18.00;99.90
10354;DHT22;5223;50.924;13.338;2022-08-02T05:56:23;18.40;99.90
10354;DHT22;5223;50.924;13.338;2022-08-02T05:58:58;18.70;99.90
10354;DHT22;5223;50.924;13.338;2022-08-02T06:01:38;18.70;99.90
10354;DHT22;5223;50.924;13.338;2022-08-02T06:04:22;19.00;99.90
10354;DHT22;5223;50.924;13.338;2022-08-02T06:07:00;19.30;99.90
10354;DHT22;5223;50.924;13.338;2022-08-02T06:09:32;19.70;99.90
10354;DHT22;5223;50.924;13.338;2022-08-02T06:12:06;20.00;99.90
10354;DHT22;5223;50.924;13.338;2022-08-02T06:14:37;20.00;99.90
10354;DHT22;5223;50.924;13.338;2022-08-02T06:17:10;19.90;99.90
10354;DHT22;5223;50.924;13.338;2022-08-02T06:19:41;19.90;99.90
10354;DHT22;5223;50.924;13.338;2022-08-02T06:22:26;20.30;99.90
10354;DHT22;5223;50.924;13.338;2022-08-02T06:24:58;20.70;99.90
10354;DHT22;5223;50.924;13.338;2022-08-02T06:27:32;20.70;99.90
10354;DHT22;5223;50.924;13.338;2022-08-02T06:30:06;20.70;99.90
10354;DHT22;5223;50.924;13.338;2022-08-02T06:32:38;20.70;99.90
10354;DHT22;5223;50.924;13.338;2022-08-02T06:35:10;21.60;99.90
10354;DHT22;5223;50.924;13.338;2022-08-02T06:37:50;22.20;99.90
10354;DHT22;5223;50.924;13.338;2022-08-02T06:40:26;22.10;99.90
10354;DHT22;5223;50.924;13.338;2022-08-02T06:43:05;22.90;99.90
10354;DHT22;5223;50.924;13.338;2022-08-02T06:45:42;23.10;99.90
10354;DHT22;5223;50.924;13.338;2022-08-02T06:48:14;22.30;99.90
10354;DHT22;5223;50.924;13.338;2022-08-02T06:50:42;22.30;99.90
10354;DHT22;5223;50.924;13.338;2022-08-02T06:53:18;22.10;99.90
10354;DHT22;5223;50.924;13.338;2022-08-02T06:55:45;22.10;99.90
10354;DHT22;5223;50.924;13.338;2022-08-02T06:58:18;22.70;99.90
10354;DHT22;5223;50.924;13.338;2022-08-02T07:00:54;22.80;99.90
10354;DHT22;5223;50.924;13.338;2022-08-02T07:03:23;23.80;99.90
10354;DHT22;5223;50.924;13.338;2022-08-02T07:05:53;24.70;99.60
10354;DHT22;5223;50.924;13.338;2022-08-02T07:08:36;25.10;98.80
10354;DHT22;5223;50.924;13.338;2022-08-02T07:11:08;23.90;98.60
10354;DHT22;5223;50.924;13.338;2022-08-02T07:13:36;22.90;99.90
10354;DHT22;5223;50.924;13.338;2022-08-02T07:16:11;22.70;99.90
10354;DHT22;5223;50.924;13.338;2022-08-02T07:18:48;22.40;99.90
10354;DHT22;5223;50.924;13.338;2022-08-02T07:21:21;22.20;99.90
10354;DHT22;5223;50.924;13.338;2022-08-02T07:24:07;22.20;99.90
10354;DHT22;5223;50.924;13.338;2022-08-02T07:26:34;23.50;99.90
10354;DHT22;5223;50.924;13.338;2022-08-02T07:29:04;25.20;98.60
10354;DHT22;5223;50.924;13.338;2022-08-02T07:31:32;24.10;98.60
10354;DHT22;5223;50.924;13.338;2022-08-02T07:34:16;24.10;99.90
10354;DHT22;5223;50.924;13.338;2022-08-02T07:36:43;25.60;97.30
10354;DHT22;5223;50.924;13.338;2022-08-02T07:39:15;25.80;96.90
10354;DHT22;5223;50.924;13.338;2022-08-02T07:41:45;26.50;95.70
10354;DHT22;5223;50.924;13.338;2022-08-02T07:44:17;26.60;93.80
10354;DHT22;5223;50.924;13.338;2022-08-02T07:46:47;26.90;94.10
10354;DHT22;5223;50.924;13.338;2022-08-02T07:49:19;27.20;92.80
10354;DHT22;5223;50.924;13.338;2022-08-02T07:51:51;27.50;92.30
10354;DHT22;5223;50.924;13.338;2022-08-02T07:54:22;27.80;91.70
10354;DHT22;5223;50.924;13.338;2022-08-02T07:56:50;27.20;91.80
10354;DHT22;5223;50.924;13.338;2022-08-02T07:59:27;27.40;91.00
10354;DHT22;5223;50.924;13.338;2022-08-02T08:01:55;27.60;90.50
10354;DHT22;5223;50.924;13.338;2022-08-02T08:04:25;27.40;91.00
10354;DHT22;5223;50.924;13.338;2022-08-02T08:06:53;26.60;91.00
10354;DHT22;5223;50.924;13.338;2022-08-02T08:09:25;26.60;92.00
10354;DHT22;5223;50.924;13.338;2022-08-02T08:11:52;27.70;89.80
10354;DHT22;5223;50.924;13.338;2022-08-02T08:14:19;28.40;84.90
10354;DHT22;5223;50.924;13.338;2022-08-02T08:16:46;28.70;84.70
10354;DHT22;5223;50.924;13.338;2022-08-02T08:19:14;29.30;83.00
10354;DHT22;5223;50.924;13.338;2022-08-02T08:21:41;29.70;80.80
10354;DHT22;5223;50.924;13.338;2022-08-02T08:24:08;29.20;82.00
10354;DHT22;5223;50.924;13.338;2022-08-02T08:26:37;29.00;84.70
10354;DHT22;5223;50.924;13.338;2022-08-02T08:29:04;28.90;85.40
10354;DHT22;5223;50.924;13.338;2022-08-02T08:31:31;29.40;77.10
10354;DHT22;5223;50.924;13.338;2022-08-02T08:34:03;29.70;77.30
10354;DHT22;5223;50.924;13.338;2022-08-02T08:36:30;29.80;77.30
10354;DHT22;5223;50.924;13.338;2022-08-02T08:38:57;28.40;80.60
10354;DHT22;5223;50.924;13.338;2022-08-02T08:41:24;28.20;80.70
10354;DHT22;5223;50.924;13.338;2022-08-02T08:43:54;29.40;80.70
10354;DHT22;5223;50.924;13.338;2022-08-02T08:46:28;30.30;75.40
10354;DHT22;5223;50.924;13.338;2022-08-02T08:48:59;31.10;73.00
10354;DHT22;5223;50.924;13.338;2022-08-02T08:51:30;31.80;70.00
10354;DHT22;5223;50.924;13.338;2022-08-02T08:54:01;31.50;68.30
10354;DHT22;5223;50.924;13.338;2022-08-02T08:56:32;31.10;70.00
10354;DHT22;5223;50.924;13.338;2022-08-02T08:59:02;28.20;76.40
10354;DHT22;5223;50.924;13.338;2022-08-02T09:01:30;27.40;81.00
10354;DHT22;5223;50.924;13.338;2022-08-02T09:03:57;28.50;80.00
10354;DHT22;5223;50.924;13.338;2022-08-02T09:06:25;30.50;75.30
10354;DHT22;5223;50.924;13.338;2022-08-02T09:08:52;32.00;69.40
10354;DHT22;5223;50.924;13.338;2022-08-02T09:11:23;31.20;68.10
10354;DHT22;5223;50.924;13.338;2022-08-02T09:13:52;32.10;67.30
10354;DHT22;5223;50.924;13.338;2022-08-02T09:16:32;30.80;69.30
10354;DHT22;5223;50.924;13.338;2022-08-02T09:19:00;30.60;68.60
10354;DHT22;5223;50.924;13.338;2022-08-02T09:21:35;30.80;68.30
10354;DHT22;5223;50.924;13.338;2022-08-02T09:24:14;30.50;73.20
10354;DHT22;5223;50.924;13.338;2022-08-02T09:26:42;31.50;67.10
10354;DHT22;5223;50.924;13.338;2022-08-02T09:29:09;32.20;66.30
10354;DHT22;5223;50.924;13.338;2022-08-02T09:31:40;33.50;60.40
10354;DHT22;5223;50.924;13.338;2022-08-02T09:34:07;33.30;59.80
10354;DHT22;5223;50.924;13.338;2022-08-02T09:36:39;31.00;65.50
10354;DHT22;5223;50.924;13.338;2022-08-02T09:39:08;30.40;67.90
10354;DHT22;5223;50.924;13.338;2022-08-02T09:41:38;31.20;66.20
10354;DHT22;5223;50.924;13.338;2022-08-02T09:44:10;31.80;66.20
10354;DHT22;5223;50.924;13.338;2022-08-02T09:46:48;33.40;61.00
10354;DHT22;5223;50.924;13.338;2022-08-02T09:49:19;33.90;57.50
10354;DHT22;5223;50.924;13.338;2022-08-02T09:51:48;34.20;56.20
10354;DHT22;5223;50.924;13.338;2022-08-02T09:54:17;33.40;57.80
10354;DHT22;5223;50.924;13.338;2022-08-02T09:56:46;33.20;57.30
10354;DHT22;5223;50.924;13.338;2022-08-02T09:59:15;32.40;61.10
10354;DHT22;5223;50.924;13.338;2022-08-02T10:01:45;34.10;56.60
10354;DHT22;5223;50.924;13.338;2022-08-02T10:04:26;33.90;58.00
10354;DHT22;5223;50.924;13.338;2022-08-02T10:07:00;32.70;57.30
10354;DHT22;5223;50.924;13.338;2022-08-02T10:09:28;31.10;59.60
10354;DHT22;5223;50.924;13.338;2022-08-02T10:11:56;30.30;63.60
10354;DHT22;5223;50.924;13.338;2022-08-02T10:14:24;30.30;62.50
10354;DHT22;5223;50.924;13.338;2022-08-02T10:16:58;30.60;62.80
10354;DHT22;5223;50.924;13.338;2022-08-02T10:19:28;31.30;61.70
10354;DHT22;5223;50.924;13.338;2022-08-02T10:21:59;31.70;58.30
10354;DHT22;5223;50.924;13.338;2022-08-02T10:24:30;31.00;57.30
10354;DHT22;5223;50.924;13.338;2022-08-02T10:27:00;33.10;56.70
10354;DHT22;5223;50.924;13.338;2022-08-02T10:29:34;33.50;53.80
10354;DHT22;5223;50.924;13.338;2022-08-02T10:32:06;33.50;56.40
10354;DHT22;5223;50.924;13.338;2022-08-02T10:34:42;32.40;56.60
10354;DHT22;5223;50.924;13.338;2022-08-02T10:37:10;31.90;58.10
10354;DHT22;5223;50.924;13.338;2022-08-02T10:39:41;31.40;59.80
10354;DHT22;5223;50.924;13.338;2022-08-02T10:42:09;32.90;59.30
10354;DHT22;5223;50.924;13.338;2022-08-02T10:44:36;33.50;55.60
10354;DHT22;5223;50.924;13.338;2022-08-02T10:47:22;31.90;57.60
10354;DHT22;5223;50.924;13.338;2022-08-02T10:49:52;30.40;60.70
10354;DHT22;5223;50.924;13.338;2022-08-02T10:52:19;29.90;62.60
10354;DHT22;5223;50.924;13.338;2022-08-02T10:54:56;32.10;59.10
10354;DHT22;5223;50.924;13.338;2022-08-02T10:57:24;34.30;55.70
10354;DHT22;5223;50.924;13.338;2022-08-02T10:59:54;34.20;52.10
10354;DHT22;5223;50.924;13.338;2022-08-02T11:02:36;32.30;58.00
10354;DHT22;5223;50.924;13.338;2022-08-02T11:05:13;33.70;54.70
10354;DHT22;5223;50.924;13.338;2022-08-02T11:07:43;32.60;55.30
10354;DHT22;5223;50.924;13.338;2022-08-02T11:10:30;31.90;56.00
10354;DHT22;5223;50.924;13.338;2022-08-02T11:13:10;32.50;56.50
10354;DHT22;5223;50.924;13.338;2022-08-02T11:15:56;32.30;56.10
10354;DHT22;5223;50.924;13.338;2022-08-02T11:21:34;33.20;56.00
10354;DHT22;5223;50.924;13.338;2022-08-02T11:24:24;34.10;53.00
10354;DHT22;5223;50.924;13.338;2022-08-02T11:26:52;33.00;53.60
10354;DHT22;5223;50.924;13.338;2022-08-02T11:29:20;32.70;53.90
10354;DHT22;5223;50.924;13.338;2022-08-02T11:31:48;33.40;53.40
10354;DHT22;5223;50.924;13.338;2022-08-02T11:34:17;35.00;53.40
10354;DHT22;5223;50.924;13.338;2022-08-02T11:36:49;35.70;51.40
10354;DHT22;5223;50.924;13.338;2022-08-02T11:39:20;35.50;51.10
10354;DHT22;5223;50.924;13.338;2022-08-02T11:41:50;35.50;48.20
10354;DHT22;5223;50.924;13.338;2022-08-02T11:44:17;34.20;51.50
10354;DHT22;5223;50.924;13.338;2022-08-02T11:46:51;33.70;52.20
10354;DHT22;5223;50.924;13.338;2022-08-02T11:49:21;33.30;52.70
10354;DHT22;5223;50.924;13.338;2022-08-02T11:51:56;34.70;52.00
10354;DHT22;5223;50.924;13.338;2022-08-02T11:54:31;35.30;49.20
10354;DHT22;5223;50.924;13.338;2022-08-02T11:57:12;35.20;48.80
10354;DHT22;5223;50.924;13.338;2022-08-02T11:59:41;35.60;47.70
10354;DHT22;5223;50.924;13.338;2022-08-02T12:02:12;35.70;48.20
10354;DHT22;5223;50.924;13.338;2022-08-02T12:04:41;35.30;49.00
10354;DHT22;5223;50.924;13.338;2022-08-02T12:07:10;35.40;47.40
10354;DHT22;5223;50.924;13.338;2022-08-02T12:09:37;33.60;50.00
10354;DHT22;5223;50.924;13.338;2022-08-02T12:12:07;32.60;51.60
10354;DHT22;5223;50.924;13.338;2022-08-02T12:14:41;33.10;50.60
10354;DHT22;5223;50.924;13.338;2022-08-02T12:17:09;33.00;49.80
10354;DHT22;5223;50.924;13.338;2022-08-02T12:19:54;33.80;50.30
10354;DHT22;5223;50.924;13.338;2022-08-02T12:22:27;33.30;50.80
10354;DHT22;5223;50.924;13.338;2022-08-02T12:24:55;33.50;50.80
10354;DHT22;5223;50.924;13.338;2022-08-02T12:27:32;33.40;48.50
10354;DHT22;5223;50.924;13.338;2022-08-02T12:30:02;32.90;50.30
10354;DHT22;5223;50.924;13.338;2022-08-02T12:32:34;32.10;51.90
10354;DHT22;5223;50.924;13.338;2022-08-02T12:35:07;32.30;51.50
10354;DHT22;5223;50.924;13.338;2022-08-02T12:37:38;32.00;51.60
10354;DHT22;5223;50.924;13.338;2022-08-02T12:40:19;32.80;52.30
10354;DHT22;5223;50.924;13.338;2022-08-02T12:42:47;33.60;51.20
10354;DHT22;5223;50.924;13.338;2022-08-02T12:45:15;34.00;50.80
10354;DHT22;5223;50.924;13.338;2022-08-02T12:47:47;33.10;49.90
10354;DHT22;5223;50.924;13.338;2022-08-02T12:50:16;31.30;53.00
10354;DHT22;5223;50.924;13.338;2022-08-02T12:52:47;31.90;54.10
10354;DHT22;5223;50.924;13.338;2022-08-02T12:55:16;33.70;50.30
10354;DHT22;5223;50.924;13.338;2022-08-02T12:57:54;32.60;51.10
10354;DHT22;5223;50.924;13.338;2022-08-02T13:00:23;31.90;52.30
10354;DHT22;5223;50.924;13.338;2022-08-02T13:02:50;31.60;53.90
10354;DHT22;5223;50.924;13.338;2022-08-02T13:05:17;31.00;54.00
10354;DHT22;5223;50.924;13.338;2022-08-02T13:07:46;30.80;54.40
10354;DHT22;5223;50.924;13.338;2022-08-02T13:10:13;30.30;55.20
10354;DHT22;5223;50.924;13.338;2022-08-02T13:12:40;30.10;55.30
10354;DHT22;5223;50.924;13.338;2022-08-02T13:15:08;30.40;54.70
10354;DHT22;5223;50.924;13.338;2022-08-02T13:17:36;31.20;53.90
10354;DHT22;5223;50.924;13.338;2022-08-02T13:20:05;33.10;51.60
10354;DHT22;5223;50.924;13.338;2022-08-02T13:22:33;34.10;49.10
10354;DHT22;5223;50.924;13.338;2022-08-02T13:25:02;34.50;49.80
10354;DHT22;5223;50.924;13.338;2022-08-02T13:27:29;33.30;52.20
10354;DHT22;5223;50.924;13.338;2022-08-02T13:29:57;33.30;49.70
10354;DHT22;5223;50.924;13.338;2022-08-02T13:32:24;32.60;49.70
10354;DHT22;5223;50.924;13.338;2022-08-02T13:34:52;32.30;51.10
10354;DHT22;5223;50.924;13.338;2022-08-02T13:37:19;31.10;53.80
10354;DHT22;5223;50.924;13.338;2022-08-02T13:39:47;31.40;52.70
10354;DHT22;5223;50.924;13.338;2022-08-02T13:42:16;32.10;51.80
10354;DHT22;5223;50.924;13.338;2022-08-02T13:44:43;32.30;51.50
10354;DHT22;5223;50.924;13.338;2022-08-02T13:47:09;32.80;49.60
10354;DHT22;5223;50.924;13.338;2022-08-02T13:49:37;32.30;51.20
10354;DHT22;5223;50.924;13.338;2022-08-02T13:52:06;31.80;51.10
10354;DHT22;5223;50.924;13.338;2022-08-02T13:54:34;31.90;53.40
10354;DHT22;5223;50.924;13.338;2022-08-02T13:57:02;32.70;52.90
10354;DHT22;5223;50.924;13.338;2022-08-02T13:59:31;33.60;49.40
10354;DHT22;5223;50.924;13.338;2022-08-02T14:01:58;34.60;50.20
10354;DHT22;5223;50.924;13.338;2022-08-02T14:04:26;35.40;47.70
10354;DHT22;5223;50.924;13.338;2022-08-02T14:06:56;35.80;45.30
10354;DHT22;5223;50.924;13.338;2022-08-02T14:09:28;36.10;45.80
10354;DHT22;5223;50.924;13.338;2022-08-02T14:12:00;36.50;43.90
10354;DHT22;5223;50.924;13.338;2022-08-02T14:14:31;36.50;44.20
10354;DHT22;5223;50.924;13.338;2022-08-02T14:17:04;36.30;44.40
10354;DHT22;5223;50.924;13.338;2022-08-02T14:19:38;36.30;43.50
10354;DHT22;5223;50.924;13.338;2022-08-02T14:22:05;33.30;46.50
10354;DHT22;5223;50.924;13.338;2022-08-02T14:24:32;33.50;47.50
10354;DHT22;5223;50.924;13.338;2022-08-02T14:27:00;33.50;46.70
10354;DHT22;5223;50.924;13.338;2022-08-02T14:29:27;33.00;46.70
10354;DHT22;5223;50.924;13.338;2022-08-02T14:31:55;32.60;49.90
10354;DHT22;5223;50.924;13.338;2022-08-02T14:34:22;32.90;48.10
10354;DHT22;5223;50.924;13.338;2022-08-02T14:36:49;33.90;47.30
10354;DHT22;5223;50.924;13.338;2022-08-02T14:39:16;33.40;47.40
10354;DHT22;5223;50.924;13.338;2022-08-02T14:41:44;33.30;47.40
10354;DHT22;5223;50.924;13.338;2022-08-02T14:44:11;33.00;48.40
10354;DHT22;5223;50.924;13.338;2022-08-02T14:46:38;33.00;47.40
10354;DHT22;5223;50.924;13.338;2022-08-02T14:49:08;31.70;49.00
10354;DHT22;5223;50.924;13.338;2022-08-02T14:51:36;31.80;49.30
10354;DHT22;5223;50.924;13.338;2022-08-02T14:54:04;31.40;49.60
10354;DHT22;5223;50.924;13.338;2022-08-02T14:56:32;31.80;49.30
10354;DHT22;5223;50.924;13.338;2022-08-02T14:59:02;32.20;48.60
10354;DHT22;5223;50.924;13.338;2022-08-02T15:01:29;32.30;50.40
10354;DHT22;5223;50.924;13.338;2022-08-02T15:03:58;32.90;48.90
10354;DHT22;5223;50.924;13.338;2022-08-02T15:06:27;32.90;49.60
10354;DHT22;5223;50.924;13.338;2022-08-02T15:08:57;32.90;49.00
10354;DHT22;5223;50.924;13.338;2022-08-02T15:11:24;32.70;48.80
10354;DHT22;5223;50.924;13.338;2022-08-02T15:13:51;31.90;49.80
10354;DHT22;5223;50.924;13.338;2022-08-02T15:16:18;31.30;50.70
10354;DHT22;5223;50.924;13.338;2022-08-02T15:18:48;30.40;52.40
10354;DHT22;5223;50.924;13.338;2022-08-02T15:21:15;30.10;53.20
10354;DHT22;5223;50.924;13.338;2022-08-02T15:23:43;30.50;53.80
10354;DHT22;5223;50.924;13.338;2022-08-02T15:26:10;30.70;53.70
10354;DHT22;5223;50.924;13.338;2022-08-02T15:28:37;31.10;51.40
10354;DHT22;5223;50.924;13.338;2022-08-02T15:31:04;31.10;51.40
10354;DHT22;5223;50.924;13.338;2022-08-02T15:33:31;31.40;51.80
10354;DHT22;5223;50.924;13.338;2022-08-02T15:35:58;31.20;51.20
10354;DHT22;5223;50.924;13.338;2022-08-02T15:38:25;31.00;52.80
10354;DHT22;5223;50.924;13.338;2022-08-02T15:40:53;30.60;52.60
10354;DHT22;5223;50.924;13.338;2022-08-02T15:43:20;30.40;53.20
10354;DHT22;5223;50.924;13.338;2022-08-02T15:45:47;30.20;53.30
10354;DHT22;5223;50.924;13.338;2022-08-02T15:48:14;30.10;53.70
10354;DHT22;5223;50.924;13.338;2022-08-02T15:50:42;29.80;53.80
10354;DHT22;5223;50.924;13.338;2022-08-02T15:53:09;29.70;53.90
10354;DHT22;5223;50.924;13.338;2022-08-02T15:55:36;29.60;54.90
10354;DHT22;5223;50.924;13.338;2022-08-02T15:58:05;29.50;55.70